Welcome to the New NWS' Forecast!
Most changes are behind the scenes, but click here for differences you might notice.

Terminal Aerodrome Forecast (TAF)

Issued by National Weather Service (NWS)

                            
000
FTUS42 KKEY 180234 AAA
TAFEYW
TAF AMD
KEYW 180234Z 1803/1824 07006G16KT P6SM FEW025 SCT035
     FM180400 08008G16KT P6SM VCSH SCT025 SCT035
     FM180900 08012KT P6SM SCT025
     FM181400 10012G20KT P6SM FEW025=